Utica, Nebraska
Current Conditions -  °F | °C
As of 9:35 PM on Monday 22 Dec 2014 (Local Time) from KJYR Reporting Station
Overcast Overcast  
Wind Chill: 29°   Ceiling: 4600
Heat Index: 36°   Visibility: 10mi
Dew Point: 32°   Wind: 9mph
Humidity: 87%   Direction: 300°WNW
Pressure: 29.51"   Gusts: NA
Location:  40.9°N, 97.35°W
Report Text: KJYR 230335Z AUTO 30008KT 10SM SCT030 OVC046 02/00 A2951 RMK AO2
Loading
Personal Weather Stations






























Interactive Weather Map New forecast layout! Learn more

10-Day Weather Forecast

Advertisements
Track Severe Weather on mobile